sensor_id;sensor_type;location;lat;lon;timestamp;P1;durP1;ratioP1;P2;durP2;ratioP2
70707;SDS011;58277;47.316;18.908;2023-06-22T00:00:54;13.85;;;7.60;;
70707;SDS011;58277;47.316;18.908;2023-06-22T00:03:18;12.88;;;7.35;;
70707;SDS011;58277;47.316;18.908;2023-06-22T00:05:41;14.80;;;7.25;;
70707;SDS011;58277;47.316;18.908;2023-06-22T00:08:04;15.30;;;7.25;;
70707;SDS011;58277;47.316;18.908;2023-06-22T00:10:27;15.30;;;7.63;;
70707;SDS011;58277;47.316;18.908;2023-06-22T00:12:50;12.52;;;7.20;;
70707;SDS011;58277;47.316;18.908;2023-06-22T00:15:13;13.55;;;6.97;;
70707;SDS011;58277;47.316;18.908;2023-06-22T00:17:36;11.65;;;7.10;;
70707;SDS011;58277;47.316;18.908;2023-06-22T00:19:58;12.57;;;7.50;;
70707;SDS011;58277;47.316;18.908;2023-06-22T00:22:22;13.70;;;6.83;;
70707;SDS011;58277;47.316;18.908;2023-06-22T00:24:50;13.85;;;6.88;;
70707;SDS011;58277;47.316;18.908;2023-06-22T00:27:13;12.65;;;7.35;;
70707;SDS011;58277;47.316;18.908;2023-06-22T00:29:36;14.43;;;7.10;;
70707;SDS011;58277;47.316;18.908;2023-06-22T00:31:58;13.30;;;6.93;;
70707;SDS011;58277;47.316;18.908;2023-06-22T00:34:21;12.67;;;6.97;;
70707;SDS011;58277;47.316;18.908;2023-06-22T00:36:44;12.30;;;7.05;;
70707;SDS011;58277;47.316;18.908;2023-06-22T00:39:06;12.88;;;7.07;;
70707;SDS011;58277;47.316;18.908;2023-06-22T00:41:31;11.88;;;7.38;;
70707;SDS011;58277;47.316;18.908;2023-06-22T00:43:54;13.82;;;7.03;;
70707;SDS011;58277;47.316;18.908;2023-06-22T00:46:17;12.50;;;6.83;;
70707;SDS011;58277;47.316;18.908;2023-06-22T00:48:39;14.15;;;7.15;;
70707;SDS011;58277;47.316;18.908;2023-06-22T00:51:04;13.73;;;7.63;;
70707;SDS011;58277;47.316;18.908;2023-06-22T00:53:27;13.65;;;6.85;;
70707;SDS011;58277;47.316;18.908;2023-06-22T00:55:49;12.77;;;7.30;;
70707;SDS011;58277;47.316;18.908;2023-06-22T00:58:14;14.07;;;6.80;;
70707;SDS011;58277;47.316;18.908;2023-06-22T01:00:37;12.27;;;6.70;;
70707;SDS011;58277;47.316;18.908;2023-06-22T01:03:01;14.07;;;6.72;;
70707;SDS011;58277;47.316;18.908;2023-06-22T01:05:24;15.45;;;6.72;;
70707;SDS011;58277;47.316;18.908;2023-06-22T01:15:55;13.20;;;7.20;;
70707;SDS011;58277;47.316;18.908;2023-06-22T01:18:24;12.60;;;6.97;;
70707;SDS011;58277;47.316;18.908;2023-06-22T01:20:50;13.57;;;7.18;;
70707;SDS011;58277;47.316;18.908;2023-06-22T01:23:59;12.00;;;6.57;;
70707;SDS011;58277;47.316;18.908;2023-06-22T01:26:35;13.07;;;7.05;;
70707;SDS011;58277;47.316;18.908;2023-06-22T01:29:18;14.70;;;7.60;;
70707;SDS011;58277;47.316;18.908;2023-06-22T01:31:43;13.68;;;7.15;;
70707;SDS011;58277;47.316;18.908;2023-06-22T01:34:08;14.85;;;7.45;;
70707;SDS011;58277;47.316;18.908;2023-06-22T01:36:32;15.90;;;7.73;;
70707;SDS011;58277;47.316;18.908;2023-06-22T01:38:56;14.50;;;7.70;;
70707;SDS011;58277;47.316;18.908;2023-06-22T01:41:20;16.55;;;7.93;;
70707;SDS011;58277;47.316;18.908;2023-06-22T01:43:43;15.40;;;7.90;;
70707;SDS011;58277;47.316;18.908;2023-06-22T01:46:07;15.63;;;8.85;;
70707;SDS011;58277;47.316;18.908;2023-06-22T01:48:30;17.87;;;8.70;;
70707;SDS011;58277;47.316;18.908;2023-06-22T01:50:56;17.15;;;9.05;;
70707;SDS011;58277;47.316;18.908;2023-06-22T01:53:22;19.05;;;8.90;;
70707;SDS011;58277;47.316;18.908;2023-06-22T01:55:46;16.63;;;8.93;;
70707;SDS011;58277;47.316;18.908;2023-06-22T01:58:09;18.00;;;8.85;;
70707;SDS011;58277;47.316;18.908;2023-06-22T02:00:33;15.83;;;8.63;;
70707;SDS011;58277;47.316;18.908;2023-06-22T02:03:01;17.83;;;8.43;;
70707;SDS011;58277;47.316;18.908;2023-06-22T02:05:28;16.92;;;9.02;;
70707;SDS011;58277;47.316;18.908;2023-06-22T02:08:00;18.33;;;8.63;;
70707;SDS011;58277;47.316;18.908;2023-06-22T02:10:31;20.45;;;9.15;;
70707;SDS011;58277;47.316;18.908;2023-06-22T02:12:54;15.23;;;8.73;;
70707;SDS011;58277;47.316;18.908;2023-06-22T02:15:20;18.67;;;9.07;;
70707;SDS011;58277;47.316;18.908;2023-06-22T02:17:48;16.92;;;8.90;;
70707;SDS011;58277;47.316;18.908;2023-06-22T02:20:14;17.48;;;8.80;;
70707;SDS011;58277;47.316;18.908;2023-06-22T02:22:37;19.88;;;9.40;;
70707;SDS011;58277;47.316;18.908;2023-06-22T02:24:59;19.23;;;8.90;;
70707;SDS011;58277;47.316;18.908;2023-06-22T02:27:22;21.15;;;9.73;;
70707;SDS011;58277;47.316;18.908;2023-06-22T02:29:45;16.00;;;8.98;;
70707;SDS011;58277;47.316;18.908;2023-06-22T02:32:08;16.15;;;8.98;;
70707;SDS011;58277;47.316;18.908;2023-06-22T02:34:31;18.60;;;8.90;;
70707;SDS011;58277;47.316;18.908;2023-06-22T02:36:54;16.50;;;9.07;;
70707;SDS011;58277;47.316;18.908;2023-06-22T02:39:20;17.77;;;8.57;;
70707;SDS011;58277;47.316;18.908;2023-06-22T02:41:45;21.15;;;9.20;;
70707;SDS011;58277;47.316;18.908;2023-06-22T02:44:07;17.35;;;8.80;;
70707;SDS011;58277;47.316;18.908;2023-06-22T02:46:30;15.60;;;9.02;;
70707;SDS011;58277;47.316;18.908;2023-06-22T02:48:53;16.37;;;9.10;;
70707;SDS011;58277;47.316;18.908;2023-06-22T02:51:16;18.15;;;8.70;;
70707;SDS011;58277;47.316;18.908;2023-06-22T02:53:39;18.20;;;8.85;;
70707;SDS011;58277;47.316;18.908;2023-06-22T02:56:02;18.65;;;9.00;;
70707;SDS011;58277;47.316;18.908;2023-06-22T02:58:31;18.55;;;9.68;;
70707;SDS011;58277;47.316;18.908;2023-06-22T03:01:07;22.13;;;9.43;;
70707;SDS011;58277;47.316;18.908;2023-06-22T03:03:31;18.48;;;10.13;;
70707;SDS011;58277;47.316;18.908;2023-06-22T03:05:54;17.85;;;9.98;;
70707;SDS011;58277;47.316;18.908;2023-06-22T03:08:18;17.90;;;10.10;;
70707;SDS011;58277;47.316;18.908;2023-06-22T03:10:41;19.33;;;10.10;;
70707;SDS011;58277;47.316;18.908;2023-06-22T03:13:04;19.30;;;9.37;;
70707;SDS011;58277;47.316;18.908;2023-06-22T03:15:27;18.08;;;9.38;;
70707;SDS011;58277;47.316;18.908;2023-06-22T03:17:51;16.85;;;9.38;;
70707;SDS011;58277;47.316;18.908;2023-06-22T03:20:15;15.40;;;8.02;;
70707;SDS011;58277;47.316;18.908;2023-06-22T03:22:38;19.67;;;10.43;;
70707;SDS011;58277;47.316;18.908;2023-06-22T03:25:02;18.97;;;9.90;;
70707;SDS011;58277;47.316;18.908;2023-06-22T03:27:25;21.00;;;12.38;;
70707;SDS011;58277;47.316;18.908;2023-06-22T03:29:48;21.88;;;10.70;;
70707;SDS011;58277;47.316;18.908;2023-06-22T03:32:10;20.10;;;10.50;;
70707;SDS011;58277;47.316;18.908;2023-06-22T03:34:33;18.30;;;9.65;;
70707;SDS011;58277;47.316;18.908;2023-06-22T03:36:58;17.03;;;9.43;;
70707;SDS011;58277;47.316;18.908;2023-06-22T03:39:21;21.40;;;10.20;;
70707;SDS011;58277;47.316;18.908;2023-06-22T03:41:43;18.75;;;9.50;;
70707;SDS011;58277;47.316;18.908;2023-06-22T03:44:06;19.98;;;9.40;;
70707;SDS011;58277;47.316;18.908;2023-06-22T03:49:36;20.70;;;8.90;;
70707;SDS011;58277;47.316;18.908;2023-06-22T03:51:59;20.48;;;8.70;;
70707;SDS011;58277;47.316;18.908;2023-06-22T03:54:23;17.17;;;8.32;;
70707;SDS011;58277;47.316;18.908;2023-06-22T03:56:46;16.08;;;9.02;;
70707;SDS011;58277;47.316;18.908;2023-06-22T03:59:09;18.02;;;9.00;;
70707;SDS011;58277;47.316;18.908;2023-06-22T04:01:32;16.47;;;7.70;;
70707;SDS011;58277;47.316;18.908;2023-06-22T04:03:54;13.57;;;7.70;;
70707;SDS011;58277;47.316;18.908;2023-06-22T04:06:17;14.07;;;7.90;;
70707;SDS011;58277;47.316;18.908;2023-06-22T04:08:40;15.40;;;7.20;;
70707;SDS011;58277;47.316;18.908;2023-06-22T04:11:04;17.25;;;7.50;;
70707;SDS011;58277;47.316;18.908;2023-06-22T04:13:27;13.63;;;6.43;;
70707;SDS011;58277;47.316;18.908;2023-06-22T04:15:50;13.73;;;6.65;;
70707;SDS011;58277;47.316;18.908;2023-06-22T04:18:12;13.85;;;6.18;;
70707;SDS011;58277;47.316;18.908;2023-06-22T04:20:36;17.08;;;6.63;;
70707;SDS011;58277;47.316;18.908;2023-06-22T04:22:59;15.73;;;7.00;;
70707;SDS011;58277;47.316;18.908;2023-06-22T04:25:21;15.97;;;6.80;;
70707;SDS011;58277;47.316;18.908;2023-06-22T04:27:44;15.82;;;7.18;;
70707;SDS011;58277;47.316;18.908;2023-06-22T04:30:07;17.02;;;7.05;;
70707;SDS011;58277;47.316;18.908;2023-06-22T04:32:30;16.58;;;6.80;;
70707;SDS011;58277;47.316;18.908;2023-06-22T04:34:53;12.30;;;6.75;;
70707;SDS011;58277;47.316;18.908;2023-06-22T04:37:16;16.87;;;6.87;;
70707;SDS011;58277;47.316;18.908;2023-06-22T04:39:38;15.40;;;6.70;;
70707;SDS011;58277;47.316;18.908;2023-06-22T04:42:01;16.70;;;6.47;;
70707;SDS011;58277;47.316;18.908;2023-06-22T04:44:25;15.90;;;6.63;;
70707;SDS011;58277;47.316;18.908;2023-06-22T04:46:47;15.90;;;6.40;;
70707;SDS011;58277;47.316;18.908;2023-06-22T04:49:16;16.77;;;7.33;;
70707;SDS011;58277;47.316;18.908;2023-06-22T04:51:39;24.60;;;13.98;;
70707;SDS011;58277;47.316;18.908;2023-06-22T04:54:03;31.35;;;20.13;;
70707;SDS011;58277;47.316;18.908;2023-06-22T04:56:28;37.13;;;23.33;;
70707;SDS011;58277;47.316;18.908;2023-06-22T04:58:50;32.47;;;23.15;;
70707;SDS011;58277;47.316;18.908;2023-06-22T05:01:14;43.77;;;24.80;;
70707;SDS011;58277;47.316;18.908;2023-06-22T05:03:36;34.10;;;24.08;;
70707;SDS011;58277;47.316;18.908;2023-06-22T05:05:59;39.72;;;25.42;;
70707;SDS011;58277;47.316;18.908;2023-06-22T05:08:22;37.65;;;25.30;;
70707;SDS011;58277;47.316;18.908;2023-06-22T05:10:49;34.35;;;24.52;;
70707;SDS011;58277;47.316;18.908;2023-06-22T05:13:25;30.20;;;20.83;;
70707;SDS011;58277;47.316;18.908;2023-06-22T05:15:49;30.65;;;22.02;;
70707;SDS011;58277;47.316;18.908;2023-06-22T05:18:11;28.70;;;18.35;;
70707;SDS011;58277;47.316;18.908;2023-06-22T05:20:34;17.05;;;8.23;;
70707;SDS011;58277;47.316;18.908;2023-06-22T05:22:58;16.73;;;8.85;;
70707;SDS011;58277;47.316;18.908;2023-06-22T05:25:21;15.57;;;7.10;;
70707;SDS011;58277;47.316;18.908;2023-06-22T05:27:43;15.23;;;7.72;;
70707;SDS011;58277;47.316;18.908;2023-06-22T05:30:07;15.95;;;8.07;;
70707;SDS011;58277;47.316;18.908;2023-06-22T05:32:30;13.73;;;7.78;;
70707;SDS011;58277;47.316;18.908;2023-06-22T05:34:53;15.70;;;8.13;;
70707;SDS011;58277;47.316;18.908;2023-06-22T05:37:16;13.97;;;6.70;;
70707;SDS011;58277;47.316;18.908;2023-06-22T05:39:38;14.50;;;7.47;;
70707;SDS011;58277;47.316;18.908;2023-06-22T05:42:01;17.20;;;8.00;;
70707;SDS011;58277;47.316;18.908;2023-06-22T05:44:25;12.82;;;7.22;;
70707;SDS011;58277;47.316;18.908;2023-06-22T05:46:47;16.45;;;7.82;;
70707;SDS011;58277;47.316;18.908;2023-06-22T05:49:11;15.20;;;7.63;;
70707;SDS011;58277;47.316;18.908;2023-06-22T05:51:35;16.70;;;7.78;;
70707;SDS011;58277;47.316;18.908;2023-06-22T05:53:58;19.17;;;8.20;;
70707;SDS011;58277;47.316;18.908;2023-06-22T05:56:21;18.45;;;9.80;;
70707;SDS011;58277;47.316;18.908;2023-06-22T05:58:44;14.02;;;7.00;;
70707;SDS011;58277;47.316;18.908;2023-06-22T06:01:08;12.90;;;6.27;;
70707;SDS011;58277;47.316;18.908;2023-06-22T06:03:31;12.77;;;6.78;;
70707;SDS011;58277;47.316;18.908;2023-06-22T06:05:53;15.43;;;6.47;;
70707;SDS011;58277;47.316;18.908;2023-06-22T06:08:16;15.85;;;7.15;;
70707;SDS011;58277;47.316;18.908;2023-06-22T06:10:39;12.40;;;7.00;;
70707;SDS011;58277;47.316;18.908;2023-06-22T06:13:02;12.47;;;6.50;;
70707;SDS011;58277;47.316;18.908;2023-06-22T06:15:26;15.13;;;6.72;;
70707;SDS011;58277;47.316;18.908;2023-06-22T06:17:50;12.82;;;6.63;;
70707;SDS011;58277;47.316;18.908;2023-06-22T06:20:15;14.60;;;6.30;;
70707;SDS011;58277;47.316;18.908;2023-06-22T06:22:38;14.65;;;6.60;;
70707;SDS011;58277;47.316;18.908;2023-06-22T06:25:02;14.40;;;7.00;;
70707;SDS011;58277;47.316;18.908;2023-06-22T06:27:25;14.05;;;8.30;;
70707;SDS011;58277;47.316;18.908;2023-06-22T06:29:51;17.55;;;7.38;;
70707;SDS011;58277;47.316;18.908;2023-06-22T06:32:15;17.95;;;6.95;;
70707;SDS011;58277;47.316;18.908;2023-06-22T06:34:38;15.35;;;7.18;;
70707;SDS011;58277;47.316;18.908;2023-06-22T06:37:00;17.90;;;9.23;;
70707;SDS011;58277;47.316;18.908;2023-06-22T06:39:25;11.30;;;6.65;;
70707;SDS011;58277;47.316;18.908;2023-06-22T06:41:47;15.07;;;6.65;;
70707;SDS011;58277;47.316;18.908;2023-06-22T06:44:10;14.07;;;6.93;;
70707;SDS011;58277;47.316;18.908;2023-06-22T06:46:33;14.48;;;7.50;;
70707;SDS011;58277;47.316;18.908;2023-06-22T06:48:56;16.93;;;10.00;;
70707;SDS011;58277;47.316;18.908;2023-06-22T06:51:19;14.40;;;7.00;;
70707;SDS011;58277;47.316;18.908;2023-06-22T06:53:42;13.88;;;7.22;;
70707;SDS011;58277;47.316;18.908;2023-06-22T06:56:05;13.57;;;7.20;;
70707;SDS011;58277;47.316;18.908;2023-06-22T06:58:27;13.60;;;7.78;;
70707;SDS011;58277;47.316;18.908;2023-06-22T07:00:51;14.50;;;7.37;;
70707;SDS011;58277;47.316;18.908;2023-06-22T07:03:13;14.93;;;7.43;;
70707;SDS011;58277;47.316;18.908;2023-06-22T07:05:36;16.15;;;8.15;;
70707;SDS011;58277;47.316;18.908;2023-06-22T07:07:59;14.48;;;7.95;;
70707;SDS011;58277;47.316;18.908;2023-06-22T07:10:22;16.92;;;8.10;;
70707;SDS011;58277;47.316;18.908;2023-06-22T07:12:45;15.87;;;7.93;;
70707;SDS011;58277;47.316;18.908;2023-06-22T07:15:08;14.55;;;7.70;;
70707;SDS011;58277;47.316;18.908;2023-06-22T07:17:32;13.57;;;8.18;;
70707;SDS011;58277;47.316;18.908;2023-06-22T07:19:55;13.38;;;7.60;;
70707;SDS011;58277;47.316;18.908;2023-06-22T07:22:17;13.90;;;7.78;;
70707;SDS011;58277;47.316;18.908;2023-06-22T07:24:40;19.00;;;8.33;;
70707;SDS011;58277;47.316;18.908;2023-06-22T07:27:05;13.02;;;7.95;;
70707;SDS011;58277;47.316;18.908;2023-06-22T07:29:29;13.80;;;8.82;;
70707;SDS011;58277;47.316;18.908;2023-06-22T07:31:52;17.85;;;8.60;;
70707;SDS011;58277;47.316;18.908;2023-06-22T07:34:15;16.92;;;9.85;;
70707;SDS011;58277;47.316;18.908;2023-06-22T07:36:38;20.77;;;9.30;;
70707;SDS011;58277;47.316;18.908;2023-06-22T07:39:01;16.05;;;9.07;;
70707;SDS011;58277;47.316;18.908;2023-06-22T07:41:26;13.30;;;9.13;;
70707;SDS011;58277;47.316;18.908;2023-06-22T07:43:49;13.55;;;8.70;;
70707;SDS011;58277;47.316;18.908;2023-06-22T07:46:12;15.48;;;9.48;;
70707;SDS011;58277;47.316;18.908;2023-06-22T07:48:36;14.40;;;9.83;;
70707;SDS011;58277;47.316;18.908;2023-06-22T07:50:59;13.60;;;8.88;;
70707;SDS011;58277;47.316;18.908;2023-06-22T07:53:22;13.05;;;9.35;;
70707;SDS011;58277;47.316;18.908;2023-06-22T07:55:46;19.35;;;9.50;;
70707;SDS011;58277;47.316;18.908;2023-06-22T07:58:11;13.88;;;9.18;;
70707;SDS011;58277;47.316;18.908;2023-06-22T08:00:34;12.20;;;9.13;;
70707;SDS011;58277;47.316;18.908;2023-06-22T08:02:57;14.75;;;9.35;;
70707;SDS011;58277;47.316;18.908;2023-06-22T08:05:20;17.25;;;9.63;;
70707;SDS011;58277;47.316;18.908;2023-06-22T08:07:44;16.63;;;10.27;;
70707;SDS011;58277;47.316;18.908;2023-06-22T08:10:10;15.27;;;9.77;;
70707;SDS011;58277;47.316;18.908;2023-06-22T08:12:33;14.80;;;9.63;;
70707;SDS011;58277;47.316;18.908;2023-06-22T08:14:57;16.52;;;10.45;;
70707;SDS011;58277;47.316;18.908;2023-06-22T08:17:20;15.07;;;9.90;;
70707;SDS011;58277;47.316;18.908;2023-06-22T08:19:42;14.77;;;10.07;;
70707;SDS011;58277;47.316;18.908;2023-06-22T08:22:05;16.05;;;10.05;;
70707;SDS011;58277;47.316;18.908;2023-06-22T08:24:28;18.00;;;10.03;;
70707;SDS011;58277;47.316;18.908;2023-06-22T08:26:53;19.05;;;10.80;;
70707;SDS011;58277;47.316;18.908;2023-06-22T08:29:17;15.13;;;11.05;;
70707;SDS011;58277;47.316;18.908;2023-06-22T08:31:40;15.00;;;10.88;;
70707;SDS011;58277;47.316;18.908;2023-06-22T08:34:03;15.90;;;11.50;;
70707;SDS011;58277;47.316;18.908;2023-06-22T08:36:26;15.77;;;9.80;;
70707;SDS011;58277;47.316;18.908;2023-06-22T08:38:52;13.18;;;9.80;;
70707;SDS011;58277;47.316;18.908;2023-06-22T08:41:16;14.50;;;10.48;;
70707;SDS011;58277;47.316;18.908;2023-06-22T08:43:41;14.65;;;10.18;;
70707;SDS011;58277;47.316;18.908;2023-06-22T08:46:05;16.08;;;10.80;;
70707;SDS011;58277;47.316;18.908;2023-06-22T08:48:28;16.30;;;10.20;;
70707;SDS011;58277;47.316;18.908;2023-06-22T08:50:51;14.93;;;10.70;;
70707;SDS011;58277;47.316;18.908;2023-06-22T08:53:14;15.15;;;10.80;;
70707;SDS011;58277;47.316;18.908;2023-06-22T08:55:36;13.95;;;10.50;;
70707;SDS011;58277;47.316;18.908;2023-06-22T08:57:59;17.65;;;10.80;;
70707;SDS011;58277;47.316;18.908;2023-06-22T09:00:22;14.53;;;10.20;;
70707;SDS011;58277;47.316;18.908;2023-06-22T09:02:45;16.40;;;10.25;;
70707;SDS011;58277;47.316;18.908;2023-06-22T09:05:09;15.52;;;10.70;;
70707;SDS011;58277;47.316;18.908;2023-06-22T09:07:32;17.88;;;10.60;;
70707;SDS011;58277;47.316;18.908;2023-06-22T09:09:56;15.15;;;11.18;;
70707;SDS011;58277;47.316;18.908;2023-06-22T09:12:20;15.63;;;10.37;;
70707;SDS011;58277;47.316;18.908;2023-06-22T09:14:46;46.55;;;14.43;;
70707;SDS011;58277;47.316;18.908;2023-06-22T09:17:08;16.40;;;11.25;;
70707;SDS011;58277;47.316;18.908;2023-06-22T09:19:31;14.88;;;10.40;;
70707;SDS011;58277;47.316;18.908;2023-06-22T09:21:54;16.10;;;11.50;;
70707;SDS011;58277;47.316;18.908;2023-06-22T09:24:17;14.10;;;9.70;;
70707;SDS011;58277;47.316;18.908;2023-06-22T09:26:40;14.07;;;10.73;;
70707;SDS011;58277;47.316;18.908;2023-06-22T09:29:06;15.13;;;10.60;;
70707;SDS011;58277;47.316;18.908;2023-06-22T09:31:29;15.60;;;10.93;;
70707;SDS011;58277;47.316;18.908;2023-06-22T09:33:52;16.90;;;11.02;;
70707;SDS011;58277;47.316;18.908;2023-06-22T09:36:16;15.90;;;10.57;;
70707;SDS011;58277;47.316;18.908;2023-06-22T09:38:39;15.88;;;10.57;;
70707;SDS011;58277;47.316;18.908;2023-06-22T09:41:02;16.27;;;10.80;;
70707;SDS011;58277;47.316;18.908;2023-06-22T09:43:25;15.63;;;10.65;;
70707;SDS011;58277;47.316;18.908;2023-06-22T09:45:48;14.55;;;10.50;;
70707;SDS011;58277;47.316;18.908;2023-06-22T09:48:10;12.60;;;9.97;;
70707;SDS011;58277;47.316;18.908;2023-06-22T09:50:33;13.60;;;10.60;;
70707;SDS011;58277;47.316;18.908;2023-06-22T09:52:56;14.45;;;10.30;;
70707;SDS011;58277;47.316;18.908;2023-06-22T09:55:19;16.30;;;10.02;;
70707;SDS011;58277;47.316;18.908;2023-06-22T09:57:46;15.10;;;9.90;;
70707;SDS011;58277;47.316;18.908;2023-06-22T10:00:09;15.07;;;10.27;;
70707;SDS011;58277;47.316;18.908;2023-06-22T10:02:34;13.35;;;9.98;;
70707;SDS011;58277;47.316;18.908;2023-06-22T10:05:19;16.48;;;11.00;;
70707;SDS011;58277;47.316;18.908;2023-06-22T10:07:42;13.60;;;10.40;;
70707;SDS011;58277;47.316;18.908;2023-06-22T10:10:06;15.02;;;11.00;;
70707;SDS011;58277;47.316;18.908;2023-06-22T10:12:29;17.33;;;10.77;;
70707;SDS011;58277;47.316;18.908;2023-06-22T10:14:52;20.33;;;12.15;;
70707;SDS011;58277;47.316;18.908;2023-06-22T10:17:15;15.60;;;10.20;;
70707;SDS011;58277;47.316;18.908;2023-06-22T10:19:38;12.88;;;9.60;;
70707;SDS011;58277;47.316;18.908;2023-06-22T10:22:01;13.73;;;10.30;;
70707;SDS011;58277;47.316;18.908;2023-06-22T10:24:23;14.77;;;10.27;;
70707;SDS011;58277;47.316;18.908;2023-06-22T10:26:46;14.82;;;10.68;;
70707;SDS011;58277;47.316;18.908;2023-06-22T10:29:09;16.95;;;10.82;;
70707;SDS011;58277;47.316;18.908;2023-06-22T10:31:38;14.57;;;9.95;;
70707;SDS011;58277;47.316;18.908;2023-06-22T10:34:01;15.60;;;10.50;;
70707;SDS011;58277;47.316;18.908;2023-06-22T10:36:24;16.07;;;10.60;;
70707;SDS011;58277;47.316;18.908;2023-06-22T10:38:46;14.18;;;10.35;;
70707;SDS011;58277;47.316;18.908;2023-06-22T10:41:10;14.60;;;10.38;;
70707;SDS011;58277;47.316;18.908;2023-06-22T10:43:32;17.58;;;11.02;;
70707;SDS011;58277;47.316;18.908;2023-06-22T10:45:55;15.02;;;11.75;;
70707;SDS011;58277;47.316;18.908;2023-06-22T10:48:18;15.30;;;11.57;;
70707;SDS011;58277;47.316;18.908;2023-06-22T10:50:41;14.48;;;11.52;;
70707;SDS011;58277;47.316;18.908;2023-06-22T10:53:04;16.35;;;11.02;;
70707;SDS011;58277;47.316;18.908;2023-06-22T10:55:26;15.98;;;11.32;;
70707;SDS011;58277;47.316;18.908;2023-06-22T10:58:01;20.40;;;13.00;;
70707;SDS011;58277;47.316;18.908;2023-06-22T11:00:24;16.77;;;10.40;;
70707;SDS011;58277;47.316;18.908;2023-06-22T11:02:47;13.73;;;10.10;;
70707;SDS011;58277;47.316;18.908;2023-06-22T11:05:10;16.25;;;10.80;;
70707;SDS011;58277;47.316;18.908;2023-06-22T11:07:32;18.73;;;10.70;;
70707;SDS011;58277;47.316;18.908;2023-06-22T11:09:55;13.13;;;10.68;;
70707;SDS011;58277;47.316;18.908;2023-06-22T11:12:18;19.57;;;11.00;;
70707;SDS011;58277;47.316;18.908;2023-06-22T11:14:41;16.10;;;10.93;;
70707;SDS011;58277;47.316;18.908;2023-06-22T11:17:04;16.58;;;11.30;;
70707;SDS011;58277;47.316;18.908;2023-06-22T11:19:27;16.88;;;11.48;;
70707;SDS011;58277;47.316;18.908;2023-06-22T11:21:50;14.73;;;11.20;;
70707;SDS011;58277;47.316;18.908;2023-06-22T11:24:13;16.00;;;11.17;;
70707;SDS011;58277;47.316;18.908;2023-06-22T11:26:36;12.35;;;10.38;;
70707;SDS011;58277;47.316;18.908;2023-06-22T11:28:59;15.02;;;10.85;;
70707;SDS011;58277;47.316;18.908;2023-06-22T11:31:22;15.05;;;10.02;;
70707;SDS011;58277;47.316;18.908;2023-06-22T11:33:48;13.00;;;10.35;;
70707;SDS011;58277;47.316;18.908;2023-06-22T11:36:11;13.10;;;10.33;;
70707;SDS011;58277;47.316;18.908;2023-06-22T11:38:34;15.70;;;10.70;;
70707;SDS011;58277;47.316;18.908;2023-06-22T11:40:58;12.18;;;10.10;;
70707;SDS011;58277;47.316;18.908;2023-06-22T11:43:21;13.27;;;10.60;;
70707;SDS011;58277;47.316;18.908;2023-06-22T11:45:43;14.15;;;10.68;;
70707;SDS011;58277;47.316;18.908;2023-06-22T11:48:06;15.07;;;10.50;;
70707;SDS011;58277;47.316;18.908;2023-06-22T11:50:29;13.65;;;10.23;;
70707;SDS011;58277;47.316;18.908;2023-06-22T11:52:56;15.60;;;10.07;;
70707;SDS011;58277;47.316;18.908;2023-06-22T11:55:19;14.85;;;9.25;;
70707;SDS011;58277;47.316;18.908;2023-06-22T11:57:56;14.50;;;10.48;;
70707;SDS011;58277;47.316;18.908;2023-06-22T12:00:50;16.90;;;9.80;;
70707;SDS011;58277;47.316;18.908;2023-06-22T12:03:15;14.75;;;9.90;;
70707;SDS011;58277;47.316;18.908;2023-06-22T12:05:39;14.82;;;9.50;;
70707;SDS011;58277;47.316;18.908;2023-06-22T12:08:02;15.70;;;9.90;;
70707;SDS011;58277;47.316;18.908;2023-06-22T12:10:25;17.48;;;10.77;;
70707;SDS011;58277;47.316;18.908;2023-06-22T12:12:48;15.10;;;10.23;;
70707;SDS011;58277;47.316;18.908;2023-06-22T12:15:11;15.13;;;10.50;;
70707;SDS011;58277;47.316;18.908;2023-06-22T12:17:34;13.35;;;10.13;;
70707;SDS011;58277;47.316;18.908;2023-06-22T12:19:58;14.63;;;10.65;;
70707;SDS011;58277;47.316;18.908;2023-06-22T12:22:21;20.27;;;11.02;;
70707;SDS011;58277;47.316;18.908;2023-06-22T12:24:44;16.63;;;11.07;;
70707;SDS011;58277;47.316;18.908;2023-06-22T12:27:06;13.05;;;10.32;;
70707;SDS011;58277;47.316;18.908;2023-06-22T12:29:29;14.95;;;10.25;;
70707;SDS011;58277;47.316;18.908;2023-06-22T12:31:52;13.70;;;10.50;;
70707;SDS011;58277;47.316;18.908;2023-06-22T12:34:16;14.98;;;10.02;;
70707;SDS011;58277;47.316;18.908;2023-06-22T12:36:42;13.40;;;9.87;;
70707;SDS011;58277;47.316;18.908;2023-06-22T12:39:05;14.57;;;9.57;;
70707;SDS011;58277;47.316;18.908;2023-06-22T12:41:28;13.65;;;9.27;;
70707;SDS011;58277;47.316;18.908;2023-06-22T12:43:50;15.45;;;9.68;;
70707;SDS011;58277;47.316;18.908;2023-06-22T12:46:13;11.82;;;9.77;;
70707;SDS011;58277;47.316;18.908;2023-06-22T12:48:36;13.20;;;9.90;;
70707;SDS011;58277;47.316;18.908;2023-06-22T12:51:03;13.35;;;10.43;;
70707;SDS011;58277;47.316;18.908;2023-06-22T12:53:26;13.48;;;10.10;;
70707;SDS011;58277;47.316;18.908;2023-06-22T12:55:49;15.30;;;10.50;;
70707;SDS011;58277;47.316;18.908;2023-06-22T12:58:12;15.70;;;9.90;;
70707;SDS011;58277;47.316;18.908;2023-06-22T13:00:35;13.80;;;10.03;;
70707;SDS011;58277;47.316;18.908;2023-06-22T13:02:57;11.82;;;9.93;;
70707;SDS011;58277;47.316;18.908;2023-06-22T13:05:21;18.55;;;10.30;;
70707;SDS011;58277;47.316;18.908;2023-06-22T13:07:43;15.13;;;9.98;;
70707;SDS011;58277;47.316;18.908;2023-06-22T13:10:08;16.10;;;9.60;;
70707;SDS011;58277;47.316;18.908;2023-06-22T13:12:31;15.83;;;9.90;;
70707;SDS011;58277;47.316;18.908;2023-06-22T13:14:53;15.35;;;9.98;;
70707;SDS011;58277;47.316;18.908;2023-06-22T13:17:16;16.33;;;9.88;;
70707;SDS011;58277;47.316;18.908;2023-06-22T13:19:39;17.55;;;10.52;;
70707;SDS011;58277;47.316;18.908;2023-06-22T13:22:02;14.98;;;10.40;;
70707;SDS011;58277;47.316;18.908;2023-06-22T13:24:26;14.97;;;9.70;;
70707;SDS011;58277;47.316;18.908;2023-06-22T13:26:49;16.73;;;10.18;;
70707;SDS011;58277;47.316;18.908;2023-06-22T13:29:11;14.90;;;9.77;;
70707;SDS011;58277;47.316;18.908;2023-06-22T13:31:34;16.77;;;9.88;;
70707;SDS011;58277;47.316;18.908;2023-06-22T13:33:57;15.38;;;10.20;;
70707;SDS011;58277;47.316;18.908;2023-06-22T13:36:20;13.07;;;9.47;;
70707;SDS011;58277;47.316;18.908;2023-06-22T13:38:44;24.05;;;10.18;;
70707;SDS011;58277;47.316;18.908;2023-06-22T13:41:07;14.73;;;9.93;;
70707;SDS011;58277;47.316;18.908;2023-06-22T13:43:29;21.13;;;10.07;;
70707;SDS011;58277;47.316;18.908;2023-06-22T13:45:52;15.13;;;9.77;;
70707;SDS011;58277;47.316;18.908;2023-06-22T13:48:15;15.27;;;10.47;;
70707;SDS011;58277;47.316;18.908;2023-06-22T13:50:38;15.48;;;10.90;;
70707;SDS011;58277;47.316;18.908;2023-06-22T13:53:01;14.50;;;10.25;;
70707;SDS011;58277;47.316;18.908;2023-06-22T13:55:24;16.23;;;10.43;;
70707;SDS011;58277;47.316;18.908;2023-06-22T13:57:46;15.02;;;10.68;;
70707;SDS011;58277;47.316;18.908;2023-06-22T14:00:09;16.80;;;10.70;;
70707;SDS011;58277;47.316;18.908;2023-06-22T14:02:34;13.68;;;10.80;;
70707;SDS011;58277;47.316;18.908;2023-06-22T14:04:57;13.95;;;10.63;;
70707;SDS011;58277;47.316;18.908;2023-06-22T14:07:20;15.93;;;11.00;;